createdAt,value
2018-12-05T00:02:00.302Z,101.33
2018-12-05T00:05:03.940Z,101.37
2018-12-05T00:08:07.529Z,101.53
2018-12-05T00:11:11.064Z,101.59
2018-12-05T00:14:14.679Z,101.62
2018-12-05T00:17:18.145Z,101.62
2018-12-05T00:20:21.828Z,101.79
2018-12-05T00:23:26.174Z,102.04
2018-12-05T00:26:29.864Z,102.32
2018-12-05T00:29:33.498Z,102.47
2018-12-05T00:32:37.017Z,102.60
2018-12-05T00:35:40.542Z,102.98
2018-12-05T00:38:44.044Z,103.14
2018-12-05T00:41:47.638Z,103.59
2018-12-05T00:44:52.649Z,103.55
2018-12-05T00:47:57.002Z,103.80
2018-12-05T00:51:00.586Z,103.91
2018-12-05T00:54:04.218Z,104.07
2018-12-05T00:57:07.831Z,104.18
2018-12-05T01:00:11.497Z,104.71
2018-12-05T01:03:15.092Z,104.90
2018-12-05T01:06:19.611Z,104.65
2018-12-05T01:09:23.284Z,104.83
2018-12-05T01:12:26.799Z,105.13
2018-12-05T01:15:30.326Z,105.07
2018-12-05T01:18:33.808Z,105.20
2018-12-05T01:21:37.343Z,105.03
2018-12-05T01:24:40.976Z,104.87
2018-12-05T01:27:44.503Z,104.87
2018-12-05T01:30:48.298Z,105.40
2018-12-05T01:39:26.058Z,105.23
2018-12-05T01:42:29.694Z,105.10
2018-12-05T01:45:33.267Z,105.38
2018-12-05T01:48:36.923Z,105.48
2018-12-05T01:51:40.508Z,105.86
2018-12-05T01:54:44.054Z,105.50
2018-12-05T01:57:47.582Z,105.99
2018-12-05T02:00:53.014Z,105.83
2018-12-05T02:03:56.464Z,105.84
2018-12-05T02:07:06.782Z,105.69
2018-12-05T02:10:10.630Z,105.75
2018-12-05T02:13:14.110Z,105.53
2018-12-05T02:16:17.672Z,105.36
2018-12-05T02:19:21.958Z,105.66
2018-12-05T02:22:25.425Z,105.74
2018-12-05T02:25:28.918Z,105.38
2018-12-05T02:28:32.475Z,105.57
2018-12-05T02:31:36.077Z,105.84
2018-12-05T02:34:39.717Z,105.71
2018-12-05T02:37:43.259Z,106.01
2018-12-05T02:40:47.152Z,105.95
2018-12-05T02:43:50.845Z,105.96
2018-12-05T02:46:54.451Z,106.26
2018-12-05T02:49:57.921Z,106.16
2018-12-05T02:53:01.659Z,106.15
2018-12-05T02:56:05.242Z,106.41
2018-12-05T02:59:08.725Z,106.03
2018-12-05T03:02:12.364Z,106.35
2018-12-05T03:05:16.127Z,106.26
2018-12-05T03:08:19.686Z,106.65
2018-12-05T03:11:23.137Z,106.70
2018-12-05T03:14:26.662Z,106.74
2018-12-05T03:17:30.229Z,107.23
2018-12-05T03:20:33.703Z,106.99
2018-12-05T03:23:37.189Z,106.74
2018-12-05T03:26:40.727Z,106.56
2018-12-05T03:29:44.224Z,106.76
2018-12-05T03:32:47.773Z,107.02
2018-12-05T03:40:51.544Z,107.68
2018-12-05T03:43:55.116Z,107.52
2018-12-05T03:46:58.588Z,107.64
2018-12-05T03:50:02.465Z,107.63
2018-12-05T03:53:06.058Z,107.89
2018-12-05T03:56:09.566Z,107.93
2018-12-05T03:59:13.163Z,107.90
2018-12-05T04:02:16.624Z,107.74
2018-12-05T04:05:20.188Z,107.61
2018-12-05T04:08:23.733Z,107.69
2018-12-05T04:11:27.344Z,107.51
2018-12-05T04:14:30.880Z,107.51
2018-12-05T04:17:34.534Z,107.38
2018-12-05T04:20:37.994Z,107.46
2018-12-05T04:23:41.640Z,107.66
2018-12-05T04:26:45.138Z,107.57
2018-12-05T04:29:48.674Z,107.51
2018-12-05T04:32:53.184Z,107.44
2018-12-05T04:35:56.709Z,107.58
2018-12-05T04:39:00.290Z,107.37
2018-12-05T04:42:03.804Z,107.37
2018-12-05T04:45:07.558Z,107.23
2018-12-05T04:48:10.998Z,107.12
2018-12-05T04:51:14.535Z,106.79
2018-12-05T04:54:18.001Z,106.83
2018-12-05T04:57:22.318Z,106.63
2018-12-05T05:00:25.797Z,106.61
2018-12-05T05:03:29.284Z,106.53
2018-12-05T05:06:32.773Z,106.49
2018-12-05T05:09:36.274Z,106.29
2018-12-05T05:12:39.779Z,106.32
2018-12-05T05:15:43.312Z,106.06
2018-12-05T05:18:46.849Z,106.00
2018-12-05T05:21:50.524Z,105.97
2018-12-05T05:24:54.043Z,105.91
2018-12-05T05:27:57.558Z,105.84
2018-12-05T05:31:01.046Z,106.14
2018-12-05T05:34:04.605Z,106.21
2018-12-05T05:37:08.082Z,106.20
2018-12-05T05:40:11.845Z,105.70
2018-12-05T05:43:15.399Z,105.35
2018-12-05T05:46:18.988Z,105.48
2018-12-05T05:49:22.535Z,105.39
2018-12-05T05:52:26.310Z,105.52
2018-12-05T05:55:29.843Z,105.38
2018-12-05T05:58:33.394Z,105.33
2018-12-05T06:01:36.923Z,105.22
2018-12-05T06:04:40.445Z,104.94
2018-12-05T06:07:44.145Z,104.73
2018-12-05T06:10:47.645Z,104.98
2018-12-05T06:13:51.184Z,105.00
2018-12-05T06:16:54.643Z,105.02
2018-12-05T06:19:58.223Z,104.83
2018-12-05T06:23:01.793Z,104.87
2018-12-05T06:26:05.324Z,104.66
2018-12-05T06:29:08.839Z,104.44
2018-12-05T06:32:12.350Z,104.43
2018-12-05T06:35:15.845Z,104.39
2018-12-05T06:38:19.308Z,104.38
2018-12-05T06:41:22.913Z,104.03
2018-12-05T06:44:26.560Z,103.90
2018-12-05T06:47:30.058Z,104.27
2018-12-05T06:50:33.585Z,104.14
2018-12-05T06:53:37.258Z,104.02
2018-12-05T06:56:40.904Z,104.14
2018-12-05T06:59:44.464Z,104.41
2018-12-05T07:02:48.179Z,104.52
2018-12-05T07:05:51.713Z,104.26
2018-12-05T07:08:55.284Z,103.95
2018-12-05T07:11:58.780Z,103.59
2018-12-05T07:15:02.329Z,103.65
2018-12-05T07:18:12.258Z,103.33
2018-12-05T07:21:15.837Z,103.51
2018-12-05T07:24:19.395Z,103.70
2018-12-05T07:27:23.332Z,103.81
2018-12-05T07:30:29.619Z,103.73
2018-12-05T07:33:32.404Z,104.04
2018-12-05T07:36:35.929Z,103.73
2018-12-05T07:39:39.393Z,103.73
2018-12-05T07:42:43.554Z,103.49
2018-12-05T07:45:47.170Z,103.21
2018-12-05T07:48:50.684Z,102.96
2018-12-05T07:51:54.258Z,102.70
2018-12-05T07:54:57.751Z,102.78
2018-12-05T07:58:01.268Z,102.62
2018-12-05T08:01:04.775Z,102.26
2018-12-05T08:04:08.311Z,102.17
2018-12-05T08:07:11.807Z,101.75
2018-12-05T08:10:15.399Z,102.00
2018-12-05T08:13:18.901Z,102.07
2018-12-05T08:16:23.087Z,102.18
2018-12-05T08:19:26.763Z,101.91
2018-12-05T08:22:30.224Z,101.75
2018-12-05T08:25:33.722Z,101.59
2018-12-05T08:28:37.177Z,101.33
2018-12-05T08:31:40.984Z,101.05
2018-12-05T08:34:44.464Z,101.02
2018-12-05T08:37:48.014Z,100.41
2018-12-05T08:40:51.497Z,100.71
2018-12-05T08:43:55.001Z,100.49
2018-12-05T08:46:58.626Z,100.53
2018-12-05T08:50:02.327Z,100.46
2018-12-05T08:53:05.993Z,100.16
2018-12-05T08:56:09.817Z,99.92
2018-12-05T08:59:13.392Z,99.31
2018-12-05T09:02:16.924Z,99.21
2018-12-05T09:05:20.682Z,98.78
2018-12-05T09:08:24.217Z,98.89
2018-12-05T09:11:27.723Z,99.01
2018-12-05T09:14:31.324Z,98.50
2018-12-05T09:17:34.819Z,98.50
2018-12-05T09:20:38.271Z,97.48
2018-12-05T09:23:41.825Z,97.51
2018-12-05T09:26:45.393Z,97.53
2018-12-05T09:29:48.938Z,97.39
2018-12-05T09:38:26.351Z,96.40
2018-12-05T09:41:29.824Z,95.54
2018-12-05T09:44:33.379Z,95.96
2018-12-05T09:47:36.913Z,95.65
2018-12-05T09:50:40.403Z,96.05
2018-12-05T09:53:43.933Z,95.39
2018-12-05T09:56:47.454Z,95.80
2018-12-05T09:59:52.084Z,95.10
2018-12-05T10:02:55.739Z,95.08
2018-12-05T10:05:59.387Z,94.92
2018-12-05T10:09:04.067Z,94.41
2018-12-05T10:12:07.583Z,94.02
2018-12-05T10:15:11.332Z,93.88
2018-12-05T10:18:14.978Z,93.62
2018-12-05T10:21:18.533Z,93.16
2018-12-05T10:24:21.989Z,92.34
2018-12-05T10:27:25.568Z,92.56
2018-12-05T10:30:29.082Z,92.26
2018-12-05T10:33:32.793Z,92.09
2018-12-05T10:36:36.551Z,91.88
2018-12-05T10:39:40.038Z,92.05
2018-12-05T10:42:43.464Z,91.65
2018-12-05T10:45:47.127Z,91.65
2018-12-05T10:48:50.653Z,91.90
2018-12-05T10:51:54.791Z,91.68
2018-12-05T10:54:58.341Z,91.44
2018-12-05T10:58:02.153Z,90.80
2018-12-05T11:01:10.988Z,90.74
2018-12-05T11:04:20.971Z,91.00
2018-12-05T11:07:29.877Z,90.45
2018-12-05T11:10:38.721Z,90.49
2018-12-05T11:13:47.482Z,90.70
2018-12-05T11:16:57.276Z,89.98
2018-12-05T11:20:06.098Z,89.74
2018-12-05T11:23:14.616Z,89.20
2018-12-05T11:26:21.781Z,89.66
2018-12-05T11:29:25.456Z,89.01
2018-12-05T11:32:28.930Z,88.26
2018-12-05T11:35:32.525Z,88.30
2018-12-05T11:38:36.187Z,88.20
2018-12-05T11:41:39.707Z,88.09
2018-12-05T11:44:43.390Z,87.65
2018-12-05T11:47:47.115Z,87.74
2018-12-05T11:50:50.697Z,88.54
2018-12-05T11:53:55.137Z,88.47
2018-12-05T11:56:58.738Z,88.43
2018-12-05T12:00:02.245Z,88.19
2018-12-05T12:03:06.142Z,87.17
2018-12-05T12:06:09.632Z,87.59
2018-12-05T12:09:13.398Z,87.67
2018-12-05T12:12:22.272Z,87.61
2018-12-05T12:15:25.832Z,87.39
2018-12-05T12:18:29.346Z,87.14
2018-12-05T12:21:32.834Z,87.32
2018-12-05T12:24:36.488Z,88.27
2018-12-05T12:27:39.930Z,88.26
2018-12-05T12:30:43.352Z,87.65
2018-12-05T12:33:46.924Z,86.45
2018-12-05T12:36:50.426Z,86.31
2018-12-05T12:39:55.360Z,86.98
2018-12-05T12:42:58.907Z,86.45
2018-12-05T12:46:02.447Z,85.77
2018-12-05T12:49:06.020Z,85.46
2018-12-05T12:52:09.582Z,85.55
2018-12-05T12:55:13.135Z,84.63
2018-12-05T12:58:16.619Z,85.31
2018-12-05T13:01:20.160Z,85.08
2018-12-05T13:04:24.428Z,85.11
2018-12-05T13:07:27.906Z,84.37
2018-12-05T13:10:31.466Z,84.79
2018-12-05T13:13:34.943Z,84.44
2018-12-05T13:16:38.719Z,83.60
2018-12-05T13:19:42.193Z,84.37
2018-12-05T13:22:45.786Z,84.06
2018-12-05T13:25:49.281Z,84.21
2018-12-05T13:28:52.751Z,83.55
2018-12-05T13:31:56.221Z,82.54
2018-12-05T13:34:59.736Z,82.10
2018-12-05T13:38:03.385Z,82.68
2018-12-05T13:41:21.477Z,83.18
2018-12-05T13:44:25.305Z,82.54
2018-12-05T13:47:28.807Z,82.50
2018-12-05T13:50:32.323Z,82.25
2018-12-05T13:53:35.838Z,83.15
2018-12-05T13:56:40.103Z,82.71
2018-12-05T13:59:43.683Z,82.89
2018-12-05T14:02:47.308Z,81.89
2018-12-05T14:05:50.868Z,81.62
2018-12-05T14:08:55.330Z,82.09
2018-12-05T14:11:58.843Z,83.31
2018-12-05T14:15:02.336Z,81.20
2018-12-05T14:18:05.783Z,81.67
2018-12-05T14:21:09.272Z,81.83
2018-12-05T14:24:12.937Z,81.40
2018-12-05T14:27:16.603Z,81.38
2018-12-05T14:30:20.179Z,82.10
2018-12-05T14:33:24.662Z,82.08
2018-12-05T14:36:28.257Z,82.05
2018-12-05T14:39:31.954Z,82.18
2018-12-05T14:42:35.484Z,82.42
2018-12-05T14:45:39.129Z,82.34
2018-12-05T14:48:42.647Z,82.09
2018-12-05T14:51:46.220Z,82.13
2018-12-05T14:54:49.729Z,82.83
2018-12-05T14:57:53.372Z,83.63
2018-12-05T15:00:56.842Z,83.07
2018-12-05T15:04:00.554Z,82.62
2018-12-05T15:07:04.125Z,82.02
2018-12-05T15:10:08.042Z,82.62
2018-12-05T15:13:11.597Z,82.60
2018-12-05T15:16:15.157Z,82.89
2018-12-05T15:19:18.735Z,82.65
2018-12-05T15:22:23.203Z,83.40
2018-12-05T15:25:26.926Z,83.43
2018-12-05T15:28:30.582Z,83.19
2018-12-05T15:31:34.099Z,83.76
2018-12-05T15:34:37.603Z,83.57
2018-12-05T15:37:41.179Z,84.43
2018-12-05T15:40:44.660Z,84.88
2018-12-05T15:43:48.172Z,84.53
2018-12-05T15:46:51.673Z,83.79
2018-12-05T15:49:56.847Z,84.13
2018-12-05T15:53:00.442Z,84.52
2018-12-05T15:56:03.959Z,83.82
2018-12-05T15:59:07.509Z,83.99
2018-12-05T16:02:11.168Z,84.15
2018-12-05T16:05:14.975Z,84.07
2018-12-05T16:08:18.428Z,83.95
2018-12-05T16:11:22.004Z,84.20
2018-12-05T16:14:25.504Z,84.04
2018-12-05T16:17:29.190Z,84.12
2018-12-05T16:20:32.755Z,84.22
2018-12-05T16:23:36.294Z,84.02
2018-12-05T16:26:40.027Z,83.41
2018-12-05T16:29:43.453Z,83.37
2018-12-05T16:32:47.018Z,84.13
2018-12-05T16:35:50.582Z,83.80
2018-12-05T16:44:46.128Z,83.92
2018-12-05T16:47:49.709Z,84.22
2018-12-05T16:50:53.213Z,84.25
2018-12-05T16:53:56.764Z,84.46
2018-12-05T16:57:00.270Z,84.31
2018-12-05T17:00:04.180Z,84.34
2018-12-05T17:03:07.855Z,84.56
2018-12-05T17:06:11.398Z,84.22
2018-12-05T17:09:14.874Z,84.90
2018-12-05T17:12:18.456Z,84.63
2018-12-05T17:15:21.934Z,85.28
2018-12-05T17:18:25.893Z,84.79
2018-12-05T17:21:29.537Z,85.12
2018-12-05T17:24:33.051Z,84.59
2018-12-05T17:27:36.583Z,84.79
2018-12-05T17:30:40.064Z,86.01
2018-12-05T17:33:43.551Z,85.46
2018-12-05T17:36:47.060Z,85.71
2018-12-05T17:39:50.567Z,86.27
2018-12-05T17:42:54.142Z,85.50
2018-12-05T17:45:57.764Z,85.91
2018-12-05T17:49:01.281Z,86.38
2018-12-05T17:52:04.978Z,86.59
2018-12-05T17:55:08.493Z,85.54
2018-12-05T17:58:20.000Z,85.25
2018-12-05T18:01:23.446Z,86.55
2018-12-05T18:04:27.024Z,86.98
2018-12-05T18:07:30.601Z,85.78
2018-12-05T18:10:34.109Z,86.03
2018-12-05T18:13:37.645Z,86.08
2018-12-05T18:16:41.166Z,85.61
2018-12-05T18:19:44.916Z,85.85
2018-12-05T18:22:48.410Z,85.50
2018-12-05T18:25:51.939Z,85.77
2018-12-05T18:34:28.710Z,86.05
2018-12-05T18:37:32.260Z,86.09
2018-12-05T18:40:35.790Z,86.60
2018-12-05T18:43:39.465Z,86.62
2018-12-05T18:46:43.015Z,87.03
2018-12-05T18:49:46.489Z,87.48
2018-12-05T18:52:50.200Z,86.93
2018-12-05T18:55:53.735Z,87.16
2018-12-05T18:58:57.284Z,86.75
2018-12-05T19:02:00.854Z,89.21
2018-12-05T19:05:04.919Z,90.10
2018-12-05T19:08:09.050Z,89.52
2018-12-05T19:11:12.774Z,90.75
2018-12-05T19:14:21.554Z,90.29
2018-12-05T19:17:25.109Z,90.39
2018-12-05T19:20:28.813Z,91.06
2018-12-05T19:23:32.323Z,90.75
2018-12-05T19:26:35.760Z,91.43
2018-12-05T19:29:39.267Z,89.91
2018-12-05T19:32:42.736Z,90.12
2018-12-05T19:35:46.258Z,91.62
2018-12-05T19:38:49.962Z,92.28
2018-12-05T19:41:54.078Z,91.03
2018-12-05T19:44:57.587Z,91.03
2018-12-05T19:48:01.138Z,90.36
2018-12-05T19:51:04.817Z,90.87
2018-12-05T19:54:08.514Z,91.14
2018-12-05T19:57:12.054Z,90.90
2018-12-05T20:00:15.552Z,91.06
2018-12-05T20:03:19.089Z,90.97
2018-12-05T20:06:25.634Z,90.98
2018-12-05T20:09:29.179Z,90.47
2018-12-05T20:12:32.747Z,90.51
2018-12-05T20:15:36.253Z,90.55
2018-12-05T20:18:39.798Z,89.67
2018-12-05T20:21:43.343Z,89.96
2018-12-05T20:24:46.833Z,90.36
2018-12-05T20:27:50.388Z,90.14
2018-12-05T20:30:53.887Z,89.88
2018-12-05T20:33:57.500Z,90.10
2018-12-05T20:37:00.956Z,91.26
2018-12-05T20:40:05.453Z,91.41
2018-12-05T20:43:09.089Z,91.25
2018-12-05T20:46:12.629Z,90.83
2018-12-05T20:49:16.088Z,90.45
2018-12-05T20:52:19.628Z,91.58
2018-12-05T20:55:23.078Z,91.28
2018-12-05T20:58:26.595Z,90.95
2018-12-05T21:01:30.350Z,90.68
2018-12-05T21:04:33.921Z,90.38
2018-12-05T21:07:37.453Z,90.86
2018-12-05T21:10:41.020Z,90.74
2018-12-05T21:13:44.720Z,91.49
2018-12-05T21:16:48.221Z,92.61
2018-12-05T21:19:51.808Z,93.79
2018-12-05T21:22:55.350Z,94.09
2018-12-05T21:25:59.023Z,94.08
2018-12-05T21:29:02.505Z,94.76
2018-12-05T21:32:06.205Z,93.56
2018-12-05T21:35:09.740Z,94.22
2018-12-05T21:38:13.234Z,92.95
2018-12-05T21:41:16.736Z,93.07
2018-12-05T21:44:20.314Z,93.61
2018-12-05T21:47:23.760Z,93.29
2018-12-05T21:50:27.290Z,93.59
2018-12-05T21:53:31.020Z,93.88
2018-12-05T21:56:34.500Z,93.83
2018-12-05T21:59:38.010Z,94.55
2018-12-05T22:02:41.428Z,93.86
2018-12-05T22:05:44.969Z,93.51
2018-12-05T22:08:48.474Z,92.87
2018-12-05T22:11:52.078Z,93.77
2018-12-05T22:14:55.780Z,94.46
2018-12-05T22:17:59.243Z,94.74
2018-12-05T22:21:09.420Z,94.85
2018-12-05T22:24:13.035Z,95.86
2018-12-05T22:27:16.597Z,96.22
2018-12-05T22:30:20.140Z,95.70
2018-12-05T22:33:23.670Z,95.96
2018-12-05T22:36:27.302Z,96.46
2018-12-05T22:39:30.779Z,97.38
2018-12-05T22:42:34.223Z,98.02
2018-12-05T22:45:37.794Z,97.01
2018-12-05T22:48:41.279Z,96.45
2018-12-05T22:51:44.763Z,96.04
2018-12-05T22:54:48.288Z,96.21
2018-12-05T22:57:51.804Z,96.47
2018-12-05T23:00:58.295Z,97.18
2018-12-05T23:04:01.822Z,97.24
2018-12-05T23:07:05.530Z,96.78
2018-12-05T23:10:09.167Z,97.11
2018-12-05T23:13:12.689Z,96.79
2018-12-05T23:16:16.164Z,97.15
2018-12-05T23:19:19.922Z,97.28
2018-12-05T23:22:23.646Z,96.60
2018-12-05T23:25:27.147Z,96.73
2018-12-05T23:28:30.680Z,97.08
2018-12-05T23:31:34.184Z,98.28
2018-12-05T23:34:37.745Z,98.15
2018-12-05T23:37:41.240Z,97.53
2018-12-05T23:40:44.858Z,97.69
2018-12-05T23:43:48.408Z,98.24
2018-12-05T23:46:52.030Z,99.22
2018-12-05T23:49:55.540Z,98.93
2018-12-05T23:52:59.120Z,98.98
2018-12-05T23:56:02.583Z,98.87
2018-12-05T23:59:06.063Z,99.31
